Fincastle, Virginia
Current Conditions -  °F | °C
As of 7:54 AM on Friday 24 Oct 2014 (Local Time) from KROA Reporting Station
Broken Clouds Broken Clouds  
Wind Chill: 48°   Ceiling: 13000
Heat Index: 48°   Visibility: 10mi
Dew Point: 39°   Wind: 0mph
Humidity: 71%   Direction: NA
Pressure: 30.08"   Gusts: NA
Location:  37.5°N, 79.88°W
Report Text: KROA 241154Z 00000KT 10SM BKN130 BKN250 09/04 A3008 RMK AO2 SLP187 T00890039 10089 20056 50002
Loading
Personal Weather Stations






























Interactive Weather Map
Tropical Storm Tracking
New forecast layout! Learn more

10-Day Weather Forecast

Advertisements
Track Severe Weather on mobile